sensor_id;sensor_type;location;lat;lon;timestamp;temperature;humidity
14095;DHT22;18096;48.142;16.290;2023-04-12T00:00:59;8.40;99.90
14095;DHT22;18096;48.142;16.290;2023-04-12T00:03:25;8.40;99.90
14095;DHT22;18096;48.142;16.290;2023-04-12T00:05:51;8.40;99.90
14095;DHT22;18096;48.142;16.290;2023-04-12T00:08:21;8.40;99.90
14095;DHT22;18096;48.142;16.290;2023-04-12T00:10:51;8.40;99.90
14095;DHT22;18096;48.142;16.290;2023-04-12T00:13:17;8.40;99.90
14095;DHT22;18096;48.142;16.290;2023-04-12T00:15:44;8.50;99.90
14095;DHT22;18096;48.142;16.290;2023-04-12T00:18:10;8.30;99.90
14095;DHT22;18096;48.142;16.290;2023-04-12T00:20:35;8.30;99.90
14095;DHT22;18096;48.142;16.290;2023-04-12T00:23:01;8.20;99.90
14095;DHT22;18096;48.142;16.290;2023-04-12T00:25:26;8.20;99.90
14095;DHT22;18096;48.142;16.290;2023-04-12T00:27:52;8.20;99.90
14095;DHT22;18096;48.142;16.290;2023-04-12T00:30:18;8.20;99.90
14095;DHT22;18096;48.142;16.290;2023-04-12T00:32:43;8.20;99.90
14095;DHT22;18096;48.142;16.290;2023-04-12T00:35:09;8.20;99.90
14095;DHT22;18096;48.142;16.290;2023-04-12T00:37:34;8.10;99.90
14095;DHT22;18096;48.142;16.290;2023-04-12T00:40:04;8.10;99.90
14095;DHT22;18096;48.142;16.290;2023-04-12T00:42:32;8.10;99.90
14095;DHT22;18096;48.142;16.290;2023-04-12T00:44:58;8.10;99.90
14095;DHT22;18096;48.142;16.290;2023-04-12T00:47:23;8.00;99.90
14095;DHT22;18096;48.142;16.290;2023-04-12T00:49:49;8.00;99.90
14095;DHT22;18096;48.142;16.290;2023-04-12T00:52:15;8.00;99.90
14095;DHT22;18096;48.142;16.290;2023-04-12T00:54:42;8.00;99.90
14095;DHT22;18096;48.142;16.290;2023-04-12T00:57:09;8.00;99.90
14095;DHT22;18096;48.142;16.290;2023-04-12T00:59:35;8.00;99.90
14095;DHT22;18096;48.142;16.290;2023-04-12T01:02:00;8.00;99.90
14095;DHT22;18096;48.142;16.290;2023-04-12T01:04:27;8.10;99.90
14095;DHT22;18096;48.142;16.290;2023-04-12T01:07:18;8.00;99.90
14095;DHT22;18096;48.142;16.290;2023-04-12T01:13:14;8.00;99.90
14095;DHT22;18096;48.142;16.290;2023-04-12T01:15:53;8.00;99.90
14095;DHT22;18096;48.142;16.290;2023-04-12T01:18:21;8.00;99.90
14095;DHT22;18096;48.142;16.290;2023-04-12T01:21:15;8.00;99.90
14095;DHT22;18096;48.142;16.290;2023-04-12T01:26:43;7.90;99.90
14095;DHT22;18096;48.142;16.290;2023-04-12T01:29:12;7.90;99.90
14095;DHT22;18096;48.142;16.290;2023-04-12T01:31:53;7.90;99.90
14095;DHT22;18096;48.142;16.290;2023-04-12T01:34:22;7.90;99.90
14095;DHT22;18096;48.142;16.290;2023-04-12T01:36:50;7.90;99.90
14095;DHT22;18096;48.142;16.290;2023-04-12T01:39:17;7.90;99.90
14095;DHT22;18096;48.142;16.290;2023-04-12T01:41:42;7.90;99.90
14095;DHT22;18096;48.142;16.290;2023-04-12T01:44:14;7.90;99.90
14095;DHT22;18096;48.142;16.290;2023-04-12T01:46:41;7.90;99.90
14095;DHT22;18096;48.142;16.290;2023-04-12T01:49:08;7.80;99.90
14095;DHT22;18096;48.142;16.290;2023-04-12T01:54:07;7.70;99.90
14095;DHT22;18096;48.142;16.290;2023-04-12T01:56:37;7.70;99.90
14095;DHT22;18096;48.142;16.290;2023-04-12T01:59:04;7.80;99.90
14095;DHT22;18096;48.142;16.290;2023-04-12T02:01:30;7.70;99.90
14095;DHT22;18096;48.142;16.290;2023-04-12T02:04:00;7.70;99.90
14095;DHT22;18096;48.142;16.290;2023-04-12T02:06:26;7.70;99.90
14095;DHT22;18096;48.142;16.290;2023-04-12T02:09:03;7.70;99.90
14095;DHT22;18096;48.142;16.290;2023-04-12T02:11:30;7.70;99.90
14095;DHT22;18096;48.142;16.290;2023-04-12T02:13:55;7.70;99.90
14095;DHT22;18096;48.142;16.290;2023-04-12T02:16:21;7.70;99.90
14095;DHT22;18096;48.142;16.290;2023-04-12T02:18:50;7.70;99.90
14095;DHT22;18096;48.142;16.290;2023-04-12T02:21:16;7.70;99.90
14095;DHT22;18096;48.142;16.290;2023-04-12T02:23:42;7.60;99.90
14095;DHT22;18096;48.142;16.290;2023-04-12T02:26:09;7.60;99.90
14095;DHT22;18096;48.142;16.290;2023-04-12T02:28:36;7.60;99.90
14095;DHT22;18096;48.142;16.290;2023-04-12T02:31:03;7.60;99.90
14095;DHT22;18096;48.142;16.290;2023-04-12T02:33:29;7.60;99.90
14095;DHT22;18096;48.142;16.290;2023-04-12T02:35:55;7.60;99.90
14095;DHT22;18096;48.142;16.290;2023-04-12T02:38:22;7.60;99.90
14095;DHT22;18096;48.142;16.290;2023-04-12T02:40:47;7.50;99.90
14095;DHT22;18096;48.142;16.290;2023-04-12T02:43:13;7.50;99.90
14095;DHT22;18096;48.142;16.290;2023-04-12T02:45:39;7.40;99.90
14095;DHT22;18096;48.142;16.290;2023-04-12T02:48:04;7.50;99.90
14095;DHT22;18096;48.142;16.290;2023-04-12T02:50:30;7.50;99.90
14095;DHT22;18096;48.142;16.290;2023-04-12T02:52:56;7.50;99.90
14095;DHT22;18096;48.142;16.290;2023-04-12T02:55:21;7.40;99.90
14095;DHT22;18096;48.142;16.290;2023-04-12T02:57:47;7.40;99.90
14095;DHT22;18096;48.142;16.290;2023-04-12T03:00:14;7.40;99.90
14095;DHT22;18096;48.142;16.290;2023-04-12T03:02:41;7.40;99.90
14095;DHT22;18096;48.142;16.290;2023-04-12T03:05:07;7.40;99.90
14095;DHT22;18096;48.142;16.290;2023-04-12T03:07:33;7.30;99.90
14095;DHT22;18096;48.142;16.290;2023-04-12T03:10:00;7.30;99.90
14095;DHT22;18096;48.142;16.290;2023-04-12T03:12:26;7.30;99.90
14095;DHT22;18096;48.142;16.290;2023-04-12T03:14:51;7.20;99.90
14095;DHT22;18096;48.142;16.290;2023-04-12T03:17:17;7.20;99.90
14095;DHT22;18096;48.142;16.290;2023-04-12T03:19:42;7.20;99.90
14095;DHT22;18096;48.142;16.290;2023-04-12T03:22:08;7.20;99.90
14095;DHT22;18096;48.142;16.290;2023-04-12T03:24:34;7.20;99.90
14095;DHT22;18096;48.142;16.290;2023-04-12T03:27:01;7.20;99.90
14095;DHT22;18096;48.142;16.290;2023-04-12T03:29:27;7.20;99.90
14095;DHT22;18096;48.142;16.290;2023-04-12T03:31:53;7.10;99.90
14095;DHT22;18096;48.142;16.290;2023-04-12T03:34:18;7.10;99.90
14095;DHT22;18096;48.142;16.290;2023-04-12T03:36:44;7.10;99.90
14095;DHT22;18096;48.142;16.290;2023-04-12T03:39:10;7.10;99.90
14095;DHT22;18096;48.142;16.290;2023-04-12T03:41:36;7.10;99.90
14095;DHT22;18096;48.142;16.290;2023-04-12T03:44:02;7.00;99.90
14095;DHT22;18096;48.142;16.290;2023-04-12T03:46:28;7.10;99.90
14095;DHT22;18096;48.142;16.290;2023-04-12T03:48:53;7.00;99.90
14095;DHT22;18096;48.142;16.290;2023-04-12T03:51:20;7.00;99.90
14095;DHT22;18096;48.142;16.290;2023-04-12T03:53:46;7.00;99.90
14095;DHT22;18096;48.142;16.290;2023-04-12T03:56:12;7.00;99.90
14095;DHT22;18096;48.142;16.290;2023-04-12T03:58:38;7.00;99.90
14095;DHT22;18096;48.142;16.290;2023-04-12T04:01:04;7.00;99.90
14095;DHT22;18096;48.142;16.290;2023-04-12T04:03:31;6.90;99.90
14095;DHT22;18096;48.142;16.290;2023-04-12T04:06:00;6.90;99.90
14095;DHT22;18096;48.142;16.290;2023-04-12T04:08:29;6.90;99.90
14095;DHT22;18096;48.142;16.290;2023-04-12T04:10:56;6.90;99.90
14095;DHT22;18096;48.142;16.290;2023-04-12T04:13:22;6.90;99.90
14095;DHT22;18096;48.142;16.290;2023-04-12T04:15:55;7.00;99.90
14095;DHT22;18096;48.142;16.290;2023-04-12T04:18:23;7.00;99.90
14095;DHT22;18096;48.142;16.290;2023-04-12T04:20:48;6.90;99.90
14095;DHT22;18096;48.142;16.290;2023-04-12T04:23:15;6.90;99.90
14095;DHT22;18096;48.142;16.290;2023-04-12T04:25:42;6.90;99.90
14095;DHT22;18096;48.142;16.290;2023-04-12T04:28:08;6.90;99.90
14095;DHT22;18096;48.142;16.290;2023-04-12T04:30:34;6.90;99.90
14095;DHT22;18096;48.142;16.290;2023-04-12T04:33:03;6.90;99.90
14095;DHT22;18096;48.142;16.290;2023-04-12T04:35:30;6.90;99.90
14095;DHT22;18096;48.142;16.290;2023-04-12T04:37:56;7.00;99.90
14095;DHT22;18096;48.142;16.290;2023-04-12T04:40:22;7.00;99.90
14095;DHT22;18096;48.142;16.290;2023-04-12T04:42:49;7.00;99.90
14095;DHT22;18096;48.142;16.290;2023-04-12T04:45:21;7.00;99.90
14095;DHT22;18096;48.142;16.290;2023-04-12T04:47:51;6.90;99.90
14095;DHT22;18096;48.142;16.290;2023-04-12T04:50:19;7.00;99.90
14095;DHT22;18096;48.142;16.290;2023-04-12T04:52:46;7.00;99.90
14095;DHT22;18096;48.142;16.290;2023-04-12T04:55:15;7.10;99.90
14095;DHT22;18096;48.142;16.290;2023-04-12T04:57:49;7.10;99.90
14095;DHT22;18096;48.142;16.290;2023-04-12T05:00:15;7.00;99.90
14095;DHT22;18096;48.142;16.290;2023-04-12T05:02:41;7.10;99.90
14095;DHT22;18096;48.142;16.290;2023-04-12T05:05:09;7.20;99.90
14095;DHT22;18096;48.142;16.290;2023-04-12T05:07:34;7.20;99.90
14095;DHT22;18096;48.142;16.290;2023-04-12T05:10:02;7.20;99.90
14095;DHT22;18096;48.142;16.290;2023-04-12T05:12:28;7.20;99.90
14095;DHT22;18096;48.142;16.290;2023-04-12T05:14:53;7.30;99.90
14095;DHT22;18096;48.142;16.290;2023-04-12T05:17:21;7.30;99.90
14095;DHT22;18096;48.142;16.290;2023-04-12T05:19:47;7.40;99.90
14095;DHT22;18096;48.142;16.290;2023-04-12T05:22:12;7.50;99.90
14095;DHT22;18096;48.142;16.290;2023-04-12T05:24:39;7.50;99.90
14095;DHT22;18096;48.142;16.290;2023-04-12T05:27:05;7.60;99.90
14095;DHT22;18096;48.142;16.290;2023-04-12T05:29:30;7.60;99.90
14095;DHT22;18096;48.142;16.290;2023-04-12T05:31:57;7.70;99.90
14095;DHT22;18096;48.142;16.290;2023-04-12T05:34:23;7.80;99.90
14095;DHT22;18096;48.142;16.290;2023-04-12T05:36:49;7.80;99.90
14095;DHT22;18096;48.142;16.290;2023-04-12T05:39:15;7.90;99.90
14095;DHT22;18096;48.142;16.290;2023-04-12T05:41:40;8.00;99.90
14095;DHT22;18096;48.142;16.290;2023-04-12T05:44:06;8.10;99.90
14095;DHT22;18096;48.142;16.290;2023-04-12T05:46:32;8.20;99.90
14095;DHT22;18096;48.142;16.290;2023-04-12T05:48:57;8.20;99.90
14095;DHT22;18096;48.142;16.290;2023-04-12T05:51:23;8.30;99.90
14095;DHT22;18096;48.142;16.290;2023-04-12T05:53:49;8.40;99.90
14095;DHT22;18096;48.142;16.290;2023-04-12T05:56:14;8.50;99.90
14095;DHT22;18096;48.142;16.290;2023-04-12T05:58:41;8.50;99.90
14095;DHT22;18096;48.142;16.290;2023-04-12T06:01:07;8.60;99.90
14095;DHT22;18096;48.142;16.290;2023-04-12T06:03:32;8.70;99.90
14095;DHT22;18096;48.142;16.290;2023-04-12T06:05:58;8.80;99.90
14095;DHT22;18096;48.142;16.290;2023-04-12T06:08:24;8.80;99.90
14095;DHT22;18096;48.142;16.290;2023-04-12T06:10:49;9.00;99.90
14095;DHT22;18096;48.142;16.290;2023-04-12T06:13:15;9.00;99.90
14095;DHT22;18096;48.142;16.290;2023-04-12T06:15:41;9.00;99.90
14095;DHT22;18096;48.142;16.290;2023-04-12T06:18:07;9.10;99.90
14095;DHT22;18096;48.142;16.290;2023-04-12T06:20:33;9.20;99.90
14095;DHT22;18096;48.142;16.290;2023-04-12T06:22:59;9.30;99.90
14095;DHT22;18096;48.142;16.290;2023-04-12T06:25:24;9.30;99.90
14095;DHT22;18096;48.142;16.290;2023-04-12T06:27:50;9.40;99.90
14095;DHT22;18096;48.142;16.290;2023-04-12T06:30:17;9.50;99.90
14095;DHT22;18096;48.142;16.290;2023-04-12T06:32:43;9.50;99.90
14095;DHT22;18096;48.142;16.290;2023-04-12T06:35:09;9.50;99.90
14095;DHT22;18096;48.142;16.290;2023-04-12T06:37:34;9.60;99.90
14095;DHT22;18096;48.142;16.290;2023-04-12T06:40:00;9.60;99.90
14095;DHT22;18096;48.142;16.290;2023-04-12T06:42:26;9.60;99.90
14095;DHT22;18096;48.142;16.290;2023-04-12T06:44:51;9.60;99.90
14095;DHT22;18096;48.142;16.290;2023-04-12T06:47:17;9.60;99.90
14095;DHT22;18096;48.142;16.290;2023-04-12T06:49:42;9.60;99.90
14095;DHT22;18096;48.142;16.290;2023-04-12T06:52:08;9.60;99.90
14095;DHT22;18096;48.142;16.290;2023-04-12T06:54:38;9.70;99.90
14095;DHT22;18096;48.142;16.290;2023-04-12T06:57:08;9.70;99.90
14095;DHT22;18096;48.142;16.290;2023-04-12T06:59:34;9.60;99.90
14095;DHT22;18096;48.142;16.290;2023-04-12T07:01:59;9.60;99.90
14095;DHT22;18096;48.142;16.290;2023-04-12T07:04:25;9.60;99.90
14095;DHT22;18096;48.142;16.290;2023-04-12T07:06:50;9.60;99.90
14095;DHT22;18096;48.142;16.290;2023-04-12T07:09:16;9.60;99.90
14095;DHT22;18096;48.142;16.290;2023-04-12T07:11:42;9.70;99.90
14095;DHT22;18096;48.142;16.290;2023-04-12T07:14:07;9.70;99.90
14095;DHT22;18096;48.142;16.290;2023-04-12T07:16:33;9.80;99.90
14095;DHT22;18096;48.142;16.290;2023-04-12T07:18:59;9.80;99.90
14095;DHT22;18096;48.142;16.290;2023-04-12T07:21:25;9.80;99.90
14095;DHT22;18096;48.142;16.290;2023-04-12T07:23:51;9.90;99.90
14095;DHT22;18096;48.142;16.290;2023-04-12T07:26:17;9.90;99.90
14095;DHT22;18096;48.142;16.290;2023-04-12T07:28:43;10.00;99.90
14095;DHT22;18096;48.142;16.290;2023-04-12T07:31:09;10.00;99.90
14095;DHT22;18096;48.142;16.290;2023-04-12T07:33:35;10.10;99.90
14095;DHT22;18096;48.142;16.290;2023-04-12T07:36:02;10.10;99.90
14095;DHT22;18096;48.142;16.290;2023-04-12T07:38:28;10.20;99.90
14095;DHT22;18096;48.142;16.290;2023-04-12T07:40:55;10.20;99.90
14095;DHT22;18096;48.142;16.290;2023-04-12T07:43:21;10.30;99.90
14095;DHT22;18096;48.142;16.290;2023-04-12T07:45:47;10.30;99.90
14095;DHT22;18096;48.142;16.290;2023-04-12T07:48:13;10.30;99.90
14095;DHT22;18096;48.142;16.290;2023-04-12T07:50:39;10.40;99.90
14095;DHT22;18096;48.142;16.290;2023-04-12T07:53:22;10.50;99.90
14095;DHT22;18096;48.142;16.290;2023-04-12T07:55:49;10.50;99.90
14095;DHT22;18096;48.142;16.290;2023-04-12T07:58:16;10.50;99.90
14095;DHT22;18096;48.142;16.290;2023-04-12T08:00:42;10.50;99.90
14095;DHT22;18096;48.142;16.290;2023-04-12T08:03:10;10.50;99.90
14095;DHT22;18096;48.142;16.290;2023-04-12T08:05:36;10.60;99.90
14095;DHT22;18096;48.142;16.290;2023-04-12T08:08:02;10.70;99.80
14095;DHT22;18096;48.142;16.290;2023-04-12T08:10:28;10.70;98.90
14095;DHT22;18096;48.142;16.290;2023-04-12T08:12:54;10.80;98.60
14095;DHT22;18096;48.142;16.290;2023-04-12T08:15:20;10.80;98.30
14095;DHT22;18096;48.142;16.290;2023-04-12T08:17:46;10.80;98.40
14095;DHT22;18096;48.142;16.290;2023-04-12T08:20:12;10.90;98.50
14095;DHT22;18096;48.142;16.290;2023-04-12T08:22:40;11.00;98.20
14095;DHT22;18096;48.142;16.290;2023-04-12T08:25:06;11.10;98.00
14095;DHT22;18096;48.142;16.290;2023-04-12T08:27:33;11.10;97.70
14095;DHT22;18096;48.142;16.290;2023-04-12T08:29:59;11.10;97.00
14095;DHT22;18096;48.142;16.290;2023-04-12T08:32:25;11.10;96.90
14095;DHT22;18096;48.142;16.290;2023-04-12T08:34:50;11.10;96.90
14095;DHT22;18096;48.142;16.290;2023-04-12T08:37:16;11.20;97.30
14095;DHT22;18096;48.142;16.290;2023-04-12T08:39:42;11.30;96.30
14095;DHT22;18096;48.142;16.290;2023-04-12T08:42:09;11.30;95.80
14095;DHT22;18096;48.142;16.290;2023-04-12T08:44:36;11.30;95.70
14095;DHT22;18096;48.142;16.290;2023-04-12T08:47:06;11.30;95.40
14095;DHT22;18096;48.142;16.290;2023-04-12T08:49:33;11.40;95.00
14095;DHT22;18096;48.142;16.290;2023-04-12T08:52:08;11.50;94.80
14095;DHT22;18096;48.142;16.290;2023-04-12T08:54:36;11.50;94.70
14095;DHT22;18096;48.142;16.290;2023-04-12T08:57:06;11.60;94.30
14095;DHT22;18096;48.142;16.290;2023-04-12T08:59:36;11.60;94.00
14095;DHT22;18096;48.142;16.290;2023-04-12T09:02:02;11.70;93.60
14095;DHT22;18096;48.142;16.290;2023-04-12T09:04:27;11.80;92.70
14095;DHT22;18096;48.142;16.290;2023-04-12T09:06:54;11.80;91.00
14095;DHT22;18096;48.142;16.290;2023-04-12T09:09:45;11.90;91.20
14095;DHT22;18096;48.142;16.290;2023-04-12T09:12:12;11.90;91.00
14095;DHT22;18096;48.142;16.290;2023-04-12T09:14:39;12.00;91.30
14095;DHT22;18096;48.142;16.290;2023-04-12T09:17:20;12.10;91.80
14095;DHT22;18096;48.142;16.290;2023-04-12T09:19:46;12.10;91.20
14095;DHT22;18096;48.142;16.290;2023-04-12T09:22:12;12.10;91.00
14095;DHT22;18096;48.142;16.290;2023-04-12T09:24:48;12.20;90.20
14095;DHT22;18096;48.142;16.290;2023-04-12T09:27:16;12.30;88.90
14095;DHT22;18096;48.142;16.290;2023-04-12T09:29:45;12.30;88.80
14095;DHT22;18096;48.142;16.290;2023-04-12T09:32:24;12.40;87.30
14095;DHT22;18096;48.142;16.290;2023-04-12T09:34:55;12.60;86.90
14095;DHT22;18096;48.142;16.290;2023-04-12T09:37:22;12.70;85.90
14095;DHT22;18096;48.142;16.290;2023-04-12T09:40:06;12.70;85.70
14095;DHT22;18096;48.142;16.290;2023-04-12T09:42:34;12.80;86.60
14095;DHT22;18096;48.142;16.290;2023-04-12T09:47:46;12.80;85.70
14095;DHT22;18096;48.142;16.290;2023-04-12T09:50:26;12.80;83.50
14095;DHT22;18096;48.142;16.290;2023-04-12T09:52:54;12.80;84.00
14095;DHT22;18096;48.142;16.290;2023-04-12T09:55:21;12.80;83.40
14095;DHT22;18096;48.142;16.290;2023-04-12T09:57:50;12.90;83.50
14095;DHT22;18096;48.142;16.290;2023-04-12T10:00:16;12.90;82.80
14095;DHT22;18096;48.142;16.290;2023-04-12T10:02:47;13.00;83.50
14095;DHT22;18096;48.142;16.290;2023-04-12T10:05:16;13.10;83.90
14095;DHT22;18096;48.142;16.290;2023-04-12T10:07:43;13.20;83.20
14095;DHT22;18096;48.142;16.290;2023-04-12T10:10:14;13.20;80.50
14095;DHT22;18096;48.142;16.290;2023-04-12T10:12:41;13.20;80.00
14095;DHT22;18096;48.142;16.290;2023-04-12T10:15:08;13.20;79.00
14095;DHT22;18096;48.142;16.290;2023-04-12T10:17:42;13.20;79.10
14095;DHT22;18096;48.142;16.290;2023-04-12T10:20:11;13.20;78.80
14095;DHT22;18096;48.142;16.290;2023-04-12T10:22:42;13.30;77.50
14095;DHT22;18096;48.142;16.290;2023-04-12T10:25:12;13.40;78.00
14095;DHT22;18096;48.142;16.290;2023-04-12T10:27:40;13.50;78.00
14095;DHT22;18096;48.142;16.290;2023-04-12T10:30:30;13.50;77.60
14095;DHT22;18096;48.142;16.290;2023-04-12T10:35:28;13.60;77.00
14095;DHT22;18096;48.142;16.290;2023-04-12T10:38:01;13.60;77.20
14095;DHT22;18096;48.142;16.290;2023-04-12T10:40:31;13.70;75.50
14095;DHT22;18096;48.142;16.290;2023-04-12T10:43:24;13.60;75.90
14095;DHT22;18096;48.142;16.290;2023-04-12T10:45:53;13.70;74.70
14095;DHT22;18096;48.142;16.290;2023-04-12T10:51:20;13.90;75.10
14095;DHT22;18096;48.142;16.290;2023-04-12T10:59:02;14.20;70.50
14095;DHT22;18096;48.142;16.290;2023-04-12T11:01:28;14.10;68.80
14095;DHT22;18096;48.142;16.290;2023-04-12T11:04:18;14.10;69.10
14095;DHT22;18096;48.142;16.290;2023-04-12T11:06:57;14.10;68.80
14095;DHT22;18096;48.142;16.290;2023-04-12T11:09:28;14.20;69.60
14095;DHT22;18096;48.142;16.290;2023-04-12T11:11:57;14.20;67.70
14095;DHT22;18096;48.142;16.290;2023-04-12T11:22:12;14.40;66.90
14095;DHT22;18096;48.142;16.290;2023-04-12T11:24:42;14.40;67.20
14095;DHT22;18096;48.142;16.290;2023-04-12T11:27:08;14.50;67.10
14095;DHT22;18096;48.142;16.290;2023-04-12T11:29:35;14.40;67.10
14095;DHT22;18096;48.142;16.290;2023-04-12T11:32:05;14.40;66.10
14095;DHT22;18096;48.142;16.290;2023-04-12T11:34:35;14.40;66.80
14095;DHT22;18096;48.142;16.290;2023-04-12T11:37:02;14.40;66.60
14095;DHT22;18096;48.142;16.290;2023-04-12T11:39:33;14.40;66.20
14095;DHT22;18096;48.142;16.290;2023-04-12T11:41:59;14.50;66.00
14095;DHT22;18096;48.142;16.290;2023-04-12T11:44:27;14.50;65.60
14095;DHT22;18096;48.142;16.290;2023-04-12T11:46:53;14.50;65.70
14095;DHT22;18096;48.142;16.290;2023-04-12T11:49:21;14.60;65.50
14095;DHT22;18096;48.142;16.290;2023-04-12T11:51:47;14.60;65.50
14095;DHT22;18096;48.142;16.290;2023-04-12T11:54:13;14.70;64.00
14095;DHT22;18096;48.142;16.290;2023-04-12T11:56:40;14.70;63.80
14095;DHT22;18096;48.142;16.290;2023-04-12T11:59:06;14.60;62.60
14095;DHT22;18096;48.142;16.290;2023-04-12T12:01:34;14.50;62.70
14095;DHT22;18096;48.142;16.290;2023-04-12T12:04:00;14.50;63.40
14095;DHT22;18096;48.142;16.290;2023-04-12T12:06:26;14.40;63.20
14095;DHT22;18096;48.142;16.290;2023-04-12T12:08:53;14.40;62.80
14095;DHT22;18096;48.142;16.290;2023-04-12T12:11:20;14.40;62.00
14095;DHT22;18096;48.142;16.290;2023-04-12T12:13:48;14.40;63.20
14095;DHT22;18096;48.142;16.290;2023-04-12T12:16:14;14.40;62.80
14095;DHT22;18096;48.142;16.290;2023-04-12T12:18:42;14.40;62.70
14095;DHT22;18096;48.142;16.290;2023-04-12T12:21:12;14.40;62.50
14095;DHT22;18096;48.142;16.290;2023-04-12T12:23:40;14.40;62.30
14095;DHT22;18096;48.142;16.290;2023-04-12T12:26:06;14.40;62.80
14095;DHT22;18096;48.142;16.290;2023-04-12T12:28:38;14.30;62.10
14095;DHT22;18096;48.142;16.290;2023-04-12T12:31:09;14.40;63.20
14095;DHT22;18096;48.142;16.290;2023-04-12T12:33:36;14.40;62.70
14095;DHT22;18096;48.142;16.290;2023-04-12T12:36:08;14.40;63.00
14095;DHT22;18096;48.142;16.290;2023-04-12T12:38:37;14.40;63.60
14095;DHT22;18096;48.142;16.290;2023-04-12T12:41:14;14.40;62.90
14095;DHT22;18096;48.142;16.290;2023-04-12T12:43:48;14.50;62.80
14095;DHT22;18096;48.142;16.290;2023-04-12T12:46:14;14.40;62.60
14095;DHT22;18096;48.142;16.290;2023-04-12T12:48:44;14.40;62.30
14095;DHT22;18096;48.142;16.290;2023-04-12T12:51:11;14.50;61.80
14095;DHT22;18096;48.142;16.290;2023-04-12T12:53:38;14.40;60.60
14095;DHT22;18096;48.142;16.290;2023-04-12T12:56:06;14.40;60.80
14095;DHT22;18096;48.142;16.290;2023-04-12T12:58:33;14.40;60.80
14095;DHT22;18096;48.142;16.290;2023-04-12T13:00:58;14.40;60.80
14095;DHT22;18096;48.142;16.290;2023-04-12T13:03:24;14.40;61.00
14095;DHT22;18096;48.142;16.290;2023-04-12T13:05:50;14.50;62.10
14095;DHT22;18096;48.142;16.290;2023-04-12T13:08:16;14.50;61.70
14095;DHT22;18096;48.142;16.290;2023-04-12T13:10:42;14.60;62.30
14095;DHT22;18096;48.142;16.290;2023-04-12T13:13:07;14.60;61.50
14095;DHT22;18096;48.142;16.290;2023-04-12T13:15:33;14.70;61.60
14095;DHT22;18096;48.142;16.290;2023-04-12T13:17:59;14.70;62.10
14095;DHT22;18096;48.142;16.290;2023-04-12T13:20:24;14.70;62.10
14095;DHT22;18096;48.142;16.290;2023-04-12T13:22:52;14.70;61.80
14095;DHT22;18096;48.142;16.290;2023-04-12T13:25:18;14.70;60.10
14095;DHT22;18096;48.142;16.290;2023-04-12T13:27:44;14.70;60.80
14095;DHT22;18096;48.142;16.290;2023-04-12T13:30:10;14.70;61.40
14095;DHT22;18096;48.142;16.290;2023-04-12T13:32:36;14.80;61.50
14095;DHT22;18096;48.142;16.290;2023-04-12T13:35:03;14.80;61.70
14095;DHT22;18096;48.142;16.290;2023-04-12T13:37:28;14.90;62.10
14095;DHT22;18096;48.142;16.290;2023-04-12T13:39:54;14.90;62.50
14095;DHT22;18096;48.142;16.290;2023-04-12T13:42:20;14.90;62.60
14095;DHT22;18096;48.142;16.290;2023-04-12T13:44:47;14.90;61.40
14095;DHT22;18096;48.142;16.290;2023-04-12T13:47:16;14.80;61.10
14095;DHT22;18096;48.142;16.290;2023-04-12T13:49:45;14.80;61.20
14095;DHT22;18096;48.142;16.290;2023-04-12T13:52:10;14.80;61.50
14095;DHT22;18096;48.142;16.290;2023-04-12T13:54:36;14.70;61.50
14095;DHT22;18096;48.142;16.290;2023-04-12T13:57:02;14.70;61.50
14095;DHT22;18096;48.142;16.290;2023-04-12T13:59:29;14.60;61.40
14095;DHT22;18096;48.142;16.290;2023-04-12T14:01:55;14.60;61.40
14095;DHT22;18096;48.142;16.290;2023-04-12T14:04:21;14.60;61.60
14095;DHT22;18096;48.142;16.290;2023-04-12T14:06:46;14.50;62.20
14095;DHT22;18096;48.142;16.290;2023-04-12T14:09:26;14.50;62.50
14095;DHT22;18096;48.142;16.290;2023-04-12T14:11:52;14.50;61.30
14095;DHT22;18096;48.142;16.290;2023-04-12T14:14:26;14.40;62.00
14095;DHT22;18096;48.142;16.290;2023-04-12T14:16:53;14.50;62.50
14095;DHT22;18096;48.142;16.290;2023-04-12T14:19:22;14.50;62.00
14095;DHT22;18096;48.142;16.290;2023-04-12T14:21:48;14.40;62.40
14095;DHT22;18096;48.142;16.290;2023-04-12T14:24:15;14.40;62.30
14095;DHT22;18096;48.142;16.290;2023-04-12T14:26:41;14.40;62.00
14095;DHT22;18096;48.142;16.290;2023-04-12T14:29:07;14.40;62.10
14095;DHT22;18096;48.142;16.290;2023-04-12T14:31:34;14.40;62.50
14095;DHT22;18096;48.142;16.290;2023-04-12T14:34:03;14.50;63.00
14095;DHT22;18096;48.142;16.290;2023-04-12T14:36:29;14.50;63.30
14095;DHT22;18096;48.142;16.290;2023-04-12T14:38:56;14.60;63.90
14095;DHT22;18096;48.142;16.290;2023-04-12T14:41:22;14.60;63.90
14095;DHT22;18096;48.142;16.290;2023-04-12T14:43:47;14.60;65.20
14095;DHT22;18096;48.142;16.290;2023-04-12T14:46:15;14.60;65.30
14095;DHT22;18096;48.142;16.290;2023-04-12T14:48:41;14.60;65.30
14095;DHT22;18096;48.142;16.290;2023-04-12T14:51:07;14.50;65.50
14095;DHT22;18096;48.142;16.290;2023-04-12T14:53:33;14.60;66.40
14095;DHT22;18096;48.142;16.290;2023-04-12T14:55:58;14.60;66.90
14095;DHT22;18096;48.142;16.290;2023-04-12T14:58:32;14.60;66.30
14095;DHT22;18096;48.142;16.290;2023-04-12T15:00:58;14.50;66.30
14095;DHT22;18096;48.142;16.290;2023-04-12T15:03:25;14.50;66.30
14095;DHT22;18096;48.142;16.290;2023-04-12T15:05:51;14.50;66.60
14095;DHT22;18096;48.142;16.290;2023-04-12T15:08:17;14.50;66.40
14095;DHT22;18096;48.142;16.290;2023-04-12T15:10:43;14.60;64.60
14095;DHT22;18096;48.142;16.290;2023-04-12T15:13:09;14.70;63.40
14095;DHT22;18096;48.142;16.290;2023-04-12T15:15:35;14.70;62.80
14095;DHT22;18096;48.142;16.290;2023-04-12T15:18:01;14.80;62.50
14095;DHT22;18096;48.142;16.290;2023-04-12T15:20:27;14.80;62.80
14095;DHT22;18096;48.142;16.290;2023-04-12T15:22:53;14.90;63.10
14095;DHT22;18096;48.142;16.290;2023-04-12T15:25:19;14.90;62.70
14095;DHT22;18096;48.142;16.290;2023-04-12T15:27:46;14.90;62.10
14095;DHT22;18096;48.142;16.290;2023-04-12T15:30:12;15.00;62.10
14095;DHT22;18096;48.142;16.290;2023-04-12T15:32:40;15.00;62.30
14095;DHT22;18096;48.142;16.290;2023-04-12T15:35:06;15.00;62.70
14095;DHT22;18096;48.142;16.290;2023-04-12T15:37:33;15.00;62.70
14095;DHT22;18096;48.142;16.290;2023-04-12T15:40:00;15.00;63.10
14095;DHT22;18096;48.142;16.290;2023-04-12T15:42:26;14.90;63.00
14095;DHT22;18096;48.142;16.290;2023-04-12T15:44:52;14.90;62.80
14095;DHT22;18096;48.142;16.290;2023-04-12T15:47:17;14.90;62.90
14095;DHT22;18096;48.142;16.290;2023-04-12T15:49:43;14.80;63.50
14095;DHT22;18096;48.142;16.290;2023-04-12T15:52:10;14.90;63.90
14095;DHT22;18096;48.142;16.290;2023-04-12T15:54:37;14.80;64.30